createdAt,value
2023-02-13T00:01:29.982Z,51.20
2023-02-13T00:03:58.254Z,93.75
2023-02-13T00:06:26.549Z,34.00
2023-02-13T00:08:54.814Z,56.08
2023-02-13T00:11:24.401Z,117.07
2023-02-13T00:13:52.626Z,60.97
2023-02-13T00:16:20.946Z,61.17
2023-02-13T00:18:49.180Z,78.03
2023-02-13T00:21:17.526Z,50.42
2023-02-13T00:23:45.778Z,73.30
2023-02-13T00:26:17.469Z,81.20
2023-02-13T00:28:47.465Z,38.63
2023-02-13T00:31:17.219Z,41.35
2023-02-13T00:33:45.590Z,75.35
2023-02-13T00:36:15.585Z,66.85
2023-02-13T00:38:44.546Z,57.25
2023-02-13T00:41:13.102Z,42.10
2023-02-13T00:43:41.398Z,49.30
2023-02-13T00:46:11.477Z,30.55
2023-02-13T00:48:40.248Z,33.13
2023-02-13T00:51:09.178Z,51.70
2023-02-13T00:53:38.297Z,42.63
2023-02-13T00:56:07.792Z,74.40
2023-02-13T00:58:36.172Z,52.60
2023-02-13T01:01:04.622Z,41.10
2023-02-13T01:03:34.404Z,37.28
2023-02-13T01:06:02.898Z,77.95
2023-02-13T01:08:31.310Z,41.30
2023-02-13T01:10:59.949Z,51.83
2023-02-13T01:13:28.398Z,38.35
2023-02-13T01:15:56.843Z,48.22
2023-02-13T01:18:25.519Z,40.60
2023-02-13T01:20:59.882Z,47.30
2023-02-13T01:23:31.720Z,33.05
2023-02-13T01:26:00.238Z,42.13
2023-02-13T01:28:28.716Z,39.45
2023-02-13T01:30:58.389Z,43.10
2023-02-13T01:33:28.630Z,40.08
2023-02-13T01:35:58.396Z,66.68
2023-02-13T01:38:26.824Z,52.17
2023-02-13T01:40:55.922Z,69.03
2023-02-13T01:43:24.500Z,55.95
2023-02-13T01:45:55.862Z,63.38
2023-02-13T01:48:26.078Z,64.25
2023-02-13T01:50:58.679Z,84.95
2023-02-13T01:53:33.403Z,91.43
2023-02-13T01:56:08.422Z,63.50
2023-02-13T01:58:39.919Z,46.45
2023-02-13T02:01:09.644Z,53.25
2023-02-13T02:03:39.186Z,61.85
2023-02-13T02:06:13.192Z,69.25
2023-02-13T02:08:41.713Z,61.83
2023-02-13T02:11:12.860Z,70.80
2023-02-13T02:13:41.264Z,91.03
2023-02-13T02:16:09.521Z,47.67
2023-02-13T02:18:37.803Z,66.80
2023-02-13T02:21:38.682Z,94.78
2023-02-13T02:24:23.197Z,69.53
2023-02-13T02:27:11.405Z,74.53
2023-02-13T02:30:18.254Z,57.75
2023-02-13T02:33:30.822Z,132.60
2023-02-13T02:36:10.593Z,95.47
2023-02-13T02:38:48.532Z,98.47
2023-02-13T02:41:35.496Z,93.70
2023-02-13T02:44:11.191Z,101.43
2023-02-13T02:47:02.791Z,104.72
2023-02-13T02:49:50.890Z,79.70
2023-02-13T02:52:21.282Z,70.30
2023-02-13T02:55:07.922Z,81.88
2023-02-13T02:57:57.596Z,59.13
2023-02-13T03:00:44.586Z,91.05
2023-02-13T03:03:36.101Z,98.10
2023-02-13T03:06:12.293Z,52.78
2023-02-13T03:09:01.271Z,91.07
2023-02-13T03:11:49.403Z,83.80
2023-02-13T03:14:21.733Z,109.60
2023-02-13T03:17:08.306Z,43.13
2023-02-13T03:20:05.481Z,35.38
2023-02-13T03:22:39.279Z,72.25
2023-02-13T03:25:14.898Z,33.88
2023-02-13T03:28:05.391Z,92.72
2023-02-13T03:30:41.201Z,50.92
2023-02-13T03:33:20.463Z,69.85
2023-02-13T03:36:09.168Z,51.53
2023-02-13T03:38:43.625Z,83.75
2023-02-13T03:41:22.264Z,58.15
2023-02-13T03:43:59.431Z,39.13
2023-02-13T03:46:28.604Z,44.38
2023-02-13T03:49:11.345Z,37.22
2023-02-13T03:51:42.458Z,75.93
2023-02-13T03:54:18.122Z,129.38
2023-02-13T03:57:06.187Z,68.22
2023-02-13T03:59:36.915Z,112.07
2023-02-13T04:04:41.639Z,61.23
2023-02-13T04:07:12.135Z,64.25
2023-02-13T04:09:42.440Z,59.88
2023-02-13T04:12:17.109Z,45.42
2023-02-13T04:14:49.257Z,67.10
2023-02-13T04:17:21.181Z,44.85
2023-02-13T04:19:49.569Z,42.25
2023-02-13T04:22:17.937Z,43.53
2023-02-13T04:24:46.900Z,53.65
2023-02-13T04:27:16.982Z,34.30
2023-02-13T04:29:45.456Z,46.63
2023-02-13T04:32:14.295Z,50.97
2023-02-13T04:34:42.507Z,38.90
2023-02-13T04:37:10.793Z,38.45
2023-02-13T04:39:39.031Z,73.57
2023-02-13T04:42:07.343Z,35.60
2023-02-13T04:44:36.960Z,32.40
2023-02-13T04:47:05.305Z,44.08
2023-02-13T04:49:33.624Z,30.27
2023-02-13T04:52:01.949Z,92.53
2023-02-13T04:54:30.289Z,40.00
2023-02-13T04:56:58.546Z,45.13
2023-02-13T04:59:26.843Z,28.40
2023-02-13T05:01:56.510Z,33.15
2023-02-13T05:04:25.427Z,54.13
2023-02-13T05:06:53.842Z,35.15
2023-02-13T05:09:22.175Z,38.00
2023-02-13T05:11:52.684Z,38.55
2023-02-13T05:14:21.345Z,31.60
2023-02-13T05:16:50.721Z,36.50
2023-02-13T05:19:20.413Z,51.78
2023-02-13T05:22:06.191Z,45.17
2023-02-13T05:24:34.480Z,46.75
2023-02-13T05:27:02.775Z,38.67
2023-02-13T05:29:31.072Z,66.05
2023-02-13T05:32:00.884Z,59.38
2023-02-13T05:34:30.740Z,53.25
2023-02-13T05:36:59.145Z,41.25
2023-02-13T05:39:27.547Z,48.35
2023-02-13T05:41:55.948Z,52.72
2023-02-13T05:44:24.276Z,37.78
2023-02-13T05:46:53.306Z,36.20
2023-02-13T05:49:22.923Z,43.20
2023-02-13T05:51:53.167Z,26.13
2023-02-13T05:54:21.581Z,28.88
2023-02-13T05:56:49.849Z,41.28
2023-02-13T05:59:18.239Z,36.28
2023-02-13T06:01:46.548Z,38.58
2023-02-13T06:04:15.043Z,38.97
2023-02-13T06:06:43.437Z,66.85
2023-02-13T06:09:13.348Z,42.42
2023-02-13T06:11:41.692Z,64.70
2023-02-13T06:14:10.014Z,37.83
2023-02-13T06:16:38.256Z,47.10
2023-02-13T06:19:06.593Z,48.90
2023-02-13T06:21:37.887Z,30.17
2023-02-13T06:24:06.998Z,29.45
2023-02-13T06:26:36.692Z,36.80
2023-02-13T06:29:06.513Z,33.80
2023-02-13T06:31:35.151Z,41.25
2023-02-13T06:34:03.487Z,39.83
2023-02-13T06:36:31.946Z,32.63
2023-02-13T06:39:00.244Z,29.17
2023-02-13T06:41:28.569Z,41.45
2023-02-13T06:43:58.226Z,52.50
2023-02-13T06:46:26.554Z,46.83
2023-02-13T06:48:55.160Z,49.72
2023-02-13T06:51:23.404Z,30.45
2023-02-13T06:53:51.716Z,36.42
2023-02-13T06:56:19.997Z,33.58
2023-02-13T06:58:48.226Z,30.35
2023-02-13T07:01:17.838Z,29.95
2023-02-13T07:03:47.704Z,28.70
2023-02-13T07:06:18.799Z,29.38
2023-02-13T07:08:47.187Z,30.55
2023-02-13T07:11:19.155Z,32.30
2023-02-13T07:13:47.382Z,37.40
2023-02-13T07:16:17.412Z,49.28
2023-02-13T07:18:45.742Z,36.53
2023-02-13T07:21:14.049Z,30.08
2023-02-13T07:23:42.264Z,21.33
2023-02-13T07:26:12.069Z,28.30
2023-02-13T07:28:40.465Z,18.48
2023-02-13T07:31:08.871Z,22.73
2023-02-13T07:33:38.968Z,27.40
2023-02-13T07:36:08.115Z,25.40
2023-02-13T07:38:36.400Z,24.58
2023-02-13T07:41:05.178Z,23.83
2023-02-13T07:43:33.613Z,29.27
2023-02-13T07:46:03.359Z,20.17
2023-02-13T07:48:31.750Z,26.00
2023-02-13T07:51:03.252Z,21.90
2023-02-13T07:53:32.669Z,30.23
2023-02-13T07:56:00.871Z,33.83
2023-02-13T07:58:29.115Z,42.08
2023-02-13T08:00:57.359Z,42.35
2023-02-13T08:03:25.606Z,34.15
2023-02-13T08:05:53.916Z,23.17
2023-02-13T08:08:23.557Z,26.85
2023-02-13T08:11:09.467Z,24.80
2023-02-13T08:13:38.492Z,26.08
2023-02-13T08:16:06.872Z,26.58
2023-02-13T08:18:35.114Z,26.55
2023-02-13T08:21:03.339Z,20.77
2023-02-13T08:23:33.034Z,27.60
2023-02-13T08:26:02.290Z,38.37
2023-02-13T08:28:30.861Z,19.50
2023-02-13T08:30:59.210Z,18.92
2023-02-13T08:33:27.465Z,31.52
2023-02-13T08:35:55.805Z,26.60
2023-02-13T08:38:24.436Z,28.98
2023-02-13T08:40:54.016Z,18.73
2023-02-13T08:43:22.240Z,27.02
2023-02-13T08:45:50.514Z,22.42
2023-02-13T08:48:18.821Z,29.58
2023-02-13T08:50:47.029Z,26.58
2023-02-13T08:53:15.231Z,23.75
2023-02-13T08:55:43.440Z,90.40
2023-02-13T08:58:13.429Z,148.23
2023-02-13T09:00:41.626Z,26.50
2023-02-13T09:03:10.510Z,54.13
2023-02-13T09:05:38.824Z,21.33
2023-02-13T09:08:08.193Z,17.77
2023-02-13T09:10:36.408Z,19.63
2023-02-13T09:13:04.773Z,31.08
2023-02-13T09:15:34.816Z,22.95
2023-02-13T09:18:03.047Z,19.40
2023-02-13T09:20:31.288Z,19.70
2023-02-13T09:22:59.492Z,22.75
2023-02-13T09:25:27.789Z,25.48
2023-02-13T09:27:56.051Z,33.63
2023-02-13T09:30:24.575Z,24.63
2023-02-13T09:32:55.619Z,20.85
2023-02-13T09:35:24.516Z,25.38
2023-02-13T09:37:52.762Z,26.65
2023-02-13T09:40:25.526Z,23.38
2023-02-13T09:42:54.085Z,22.70
2023-02-13T09:45:23.146Z,21.45
2023-02-13T09:47:51.634Z,25.40
2023-02-13T09:50:24.043Z,22.65
2023-02-13T09:52:53.527Z,21.25
2023-02-13T09:55:24.469Z,19.70
2023-02-13T09:57:56.724Z,19.85
2023-02-13T10:00:28.808Z,21.75
2023-02-13T10:03:19.473Z,27.08
2023-02-13T10:05:57.733Z,23.38
2023-02-13T10:08:40.160Z,21.42
2023-02-13T10:11:16.744Z,19.90
2023-02-13T10:14:06.002Z,22.60
2023-02-13T10:16:36.937Z,20.88
2023-02-13T10:19:10.081Z,19.75
2023-02-13T10:21:43.810Z,21.30
2023-02-13T10:24:14.084Z,22.80
2023-02-13T10:26:45.469Z,20.35
2023-02-13T10:29:36.323Z,22.27
2023-02-13T10:32:08.395Z,21.38
2023-02-13T10:34:39.948Z,20.30
2023-02-13T10:37:15.554Z,23.27
2023-02-13T10:39:46.548Z,23.20
2023-02-13T10:42:23.838Z,19.40
2023-02-13T10:45:01.130Z,22.05
2023-02-13T10:47:44.470Z,22.25
2023-02-13T10:50:21.885Z,21.13
2023-02-13T10:52:58.413Z,20.00
2023-02-13T10:55:46.666Z,18.58
2023-02-13T10:58:19.596Z,19.75
2023-02-13T11:00:50.573Z,19.17
2023-02-13T11:03:21.131Z,20.90
2023-02-13T11:05:49.978Z,21.23
2023-02-13T11:08:23.078Z,22.35
2023-02-13T11:10:51.864Z,22.73
2023-02-13T11:13:22.036Z,20.80
2023-02-13T11:16:02.197Z,23.25
2023-02-13T11:18:34.210Z,20.60
2023-02-13T11:21:07.897Z,24.23
2023-02-13T11:23:39.910Z,22.38
2023-02-13T11:26:10.022Z,20.35
2023-02-13T11:28:40.425Z,33.83
2023-02-13T11:31:20.790Z,25.00
2023-02-13T11:33:49.258Z,21.05
2023-02-13T11:36:23.543Z,21.70
2023-02-13T11:39:00.954Z,21.52
2023-02-13T11:41:29.878Z,21.52
2023-02-13T11:44:02.176Z,22.02
2023-02-13T11:46:31.812Z,20.45
2023-02-13T11:49:02.736Z,23.05
2023-02-13T11:51:41.196Z,19.30
2023-02-13T11:54:24.782Z,20.40
2023-02-13T11:57:04.342Z,24.42
2023-02-13T11:59:39.967Z,67.20
2023-02-13T12:02:20.051Z,47.97
2023-02-13T12:04:49.753Z,28.00
2023-02-13T12:07:21.398Z,19.88
2023-02-13T12:09:54.644Z,22.20
2023-02-13T12:12:28.717Z,21.60
2023-02-13T12:14:57.800Z,18.90
2023-02-13T12:17:32.577Z,19.83
2023-02-13T12:20:01.479Z,18.50
2023-02-13T12:22:34.975Z,18.48
2023-02-13T12:25:28.991Z,19.92
2023-02-13T12:28:07.411Z,17.10
2023-02-13T12:30:54.555Z,18.00
2023-02-13T12:33:33.992Z,15.13
2023-02-13T12:36:03.898Z,16.63
2023-02-13T12:38:44.310Z,18.42
2023-02-13T12:41:19.600Z,16.63
2023-02-13T12:44:16.918Z,16.95
2023-02-13T12:46:53.818Z,16.80
2023-02-13T12:49:37.052Z,16.42
2023-02-13T12:52:19.974Z,18.65
2023-02-13T12:54:55.934Z,15.57
2023-02-13T12:57:38.044Z,16.73
2023-02-13T13:00:31.281Z,16.88
2023-02-13T13:03:17.643Z,17.55
2023-02-13T13:06:11.008Z,16.90
2023-02-13T13:08:48.620Z,16.77
2023-02-13T13:11:28.991Z,24.27
2023-02-13T13:14:06.485Z,20.33
2023-02-13T13:16:43.010Z,19.23
2023-02-13T13:19:17.548Z,22.38
2023-02-13T13:21:49.282Z,17.98
2023-02-13T13:24:28.002Z,17.77
2023-02-13T13:26:57.348Z,16.42
2023-02-13T13:29:28.840Z,17.48
2023-02-13T13:31:58.935Z,16.58
2023-02-13T13:34:28.504Z,14.85
2023-02-13T13:37:01.940Z,19.25
2023-02-13T13:39:38.144Z,20.45
2023-02-13T13:42:13.410Z,23.35
2023-02-13T13:45:16.752Z,17.40
2023-02-13T13:48:02.888Z,18.88
2023-02-13T13:50:32.936Z,18.60
2023-02-13T13:53:10.618Z,29.52
2023-02-13T13:56:09.362Z,25.75
2023-02-13T13:58:40.479Z,22.55
2023-02-13T14:01:22.344Z,20.13
2023-02-13T14:03:51.656Z,19.83
2023-02-13T14:06:21.630Z,19.48
2023-02-13T14:09:10.680Z,20.35
2023-02-13T14:11:46.960Z,23.17
2023-02-13T14:14:49.194Z,21.70
2023-02-13T14:17:41.568Z,19.63
2023-02-13T14:20:22.843Z,19.60
2023-02-13T14:22:51.138Z,22.75
2023-02-13T14:25:25.328Z,24.30
2023-02-13T14:27:58.380Z,19.60
2023-02-13T14:30:31.545Z,20.08
2023-02-13T14:33:03.445Z,22.83
2023-02-13T14:35:34.002Z,18.92
2023-02-13T14:38:03.701Z,18.92
2023-02-13T14:40:43.995Z,20.90
2023-02-13T14:43:34.099Z,42.72
2023-02-13T14:46:09.177Z,19.70
2023-02-13T14:48:43.296Z,35.97
2023-02-13T14:51:21.957Z,28.45
2023-02-13T14:53:54.133Z,41.42
2023-02-13T14:56:23.675Z,25.30
2023-02-13T14:58:54.302Z,31.23
2023-02-13T15:04:00.358Z,21.48
2023-02-13T15:06:31.231Z,24.65
2023-02-13T15:09:01.543Z,27.45
2023-02-13T15:11:37.998Z,24.80
2023-02-13T15:14:26.352Z,24.17
2023-02-13T15:16:57.236Z,30.40
2023-02-13T15:19:28.334Z,22.38
2023-02-13T15:21:59.230Z,28.05
2023-02-13T15:24:28.379Z,24.08
2023-02-13T15:27:01.735Z,28.05
2023-02-13T15:29:40.939Z,28.77
2023-02-13T15:32:20.107Z,25.45
2023-02-13T15:34:50.026Z,25.05
2023-02-13T15:37:25.417Z,28.65
2023-02-13T15:39:53.693Z,24.98
2023-02-13T15:42:22.204Z,23.55
2023-02-13T15:44:52.489Z,23.63
2023-02-13T15:47:26.420Z,22.35
2023-02-13T15:49:56.181Z,22.95
2023-02-13T15:52:28.438Z,24.47
2023-02-13T15:54:57.613Z,23.23
2023-02-13T15:57:26.912Z,24.20
2023-02-13T15:59:56.806Z,31.05
2023-02-13T16:02:27.168Z,23.83
2023-02-13T16:04:57.090Z,23.70
2023-02-13T16:07:25.336Z,25.55
2023-02-13T16:09:53.772Z,25.77
2023-02-13T16:12:24.400Z,25.80
2023-02-13T16:17:28.452Z,26.02
2023-02-13T16:20:01.282Z,31.17
2023-02-13T16:22:35.077Z,26.27
2023-02-13T16:25:17.441Z,29.02
2023-02-13T16:27:46.998Z,26.90
2023-02-13T16:30:26.984Z,29.42
2023-02-13T16:33:27.995Z,29.95
2023-02-13T16:35:58.780Z,31.30
2023-02-13T16:38:37.139Z,31.73
2023-02-13T16:41:06.501Z,33.13
2023-02-13T16:43:39.695Z,30.60
2023-02-13T16:46:13.065Z,31.60
2023-02-13T16:48:41.366Z,35.03
2023-02-13T16:51:11.673Z,30.80
2023-02-13T16:53:40.351Z,33.90
2023-02-13T16:56:09.968Z,31.95
2023-02-13T16:58:38.340Z,28.02
2023-02-13T17:01:06.701Z,32.47
2023-02-13T17:03:34.985Z,28.50
2023-02-13T17:06:04.022Z,34.33
2023-02-13T17:08:33.649Z,29.27
2023-02-13T17:11:04.411Z,94.88
2023-02-13T17:13:33.666Z,51.80
2023-02-13T17:16:01.968Z,35.78
2023-02-13T17:18:30.278Z,33.45
2023-02-13T17:20:58.732Z,32.63
2023-02-13T17:23:27.234Z,34.45
2023-02-13T17:25:56.805Z,32.38
2023-02-13T17:28:26.816Z,30.85
2023-02-13T17:30:57.235Z,33.10
2023-02-13T17:33:27.185Z,28.77
2023-02-13T17:35:55.469Z,30.90
2023-02-13T17:38:24.111Z,31.38
2023-02-13T17:40:52.366Z,29.30
2023-02-13T17:43:21.975Z,32.15
2023-02-13T17:45:50.896Z,30.80
2023-02-13T17:48:19.191Z,34.72
2023-02-13T17:50:52.482Z,31.67
2023-02-13T17:53:23.304Z,33.10
2023-02-13T17:55:51.731Z,36.78
2023-02-13T17:58:20.144Z,33.72
2023-02-13T18:00:49.880Z,39.63
2023-02-13T18:03:18.121Z,39.20
2023-02-13T18:05:48.674Z,34.22
2023-02-13T18:10:44.893Z,35.03
2023-02-13T18:13:13.221Z,35.08
2023-02-13T18:15:43.580Z,46.25
2023-02-13T18:18:15.136Z,50.55
2023-02-13T18:20:43.539Z,39.38
2023-02-13T18:23:11.804Z,34.30
2023-02-13T18:25:40.161Z,40.17
2023-02-13T18:28:08.421Z,52.60
2023-02-13T18:30:36.644Z,56.38
2023-02-13T18:33:05.163Z,40.45
2023-02-13T18:35:36.545Z,44.50
2023-02-13T18:38:05.038Z,53.10
2023-02-13T18:40:33.257Z,42.85
2023-02-13T18:43:01.487Z,43.85
2023-02-13T18:45:29.855Z,41.97
2023-02-13T18:47:58.137Z,41.17
2023-02-13T18:50:26.364Z,41.10
2023-02-13T18:52:55.965Z,45.35
2023-02-13T18:55:24.174Z,54.17
2023-02-13T18:57:53.392Z,42.90
2023-02-13T19:00:23.515Z,50.22
2023-02-13T19:02:51.904Z,43.17
2023-02-13T19:05:20.306Z,46.60
2023-02-13T19:07:48.663Z,43.55
2023-02-13T19:10:18.598Z,44.40
2023-02-13T19:12:46.933Z,82.38
2023-02-13T19:15:16.401Z,38.28
2023-02-13T19:17:45.327Z,76.05
2023-02-13T19:20:16.662Z,44.17
2023-02-13T19:22:45.264Z,39.35
2023-02-13T19:25:13.632Z,45.38
2023-02-13T19:27:43.425Z,43.05
2023-02-13T19:30:12.613Z,45.97
2023-02-13T19:32:41.612Z,40.85
2023-02-13T19:35:09.870Z,58.58
2023-02-13T19:37:43.901Z,50.28
2023-02-13T19:40:13.677Z,42.88
2023-02-13T19:42:43.387Z,52.17
2023-02-13T19:45:12.056Z,46.20
2023-02-13T19:47:40.358Z,50.55
2023-02-13T19:50:09.302Z,39.58
2023-02-13T19:52:38.003Z,41.28
2023-02-13T19:55:06.640Z,40.80
2023-02-13T19:57:35.000Z,43.08
2023-02-13T20:00:05.274Z,54.92
2023-02-13T20:02:33.557Z,50.17
2023-02-13T20:05:07.008Z,50.38
2023-02-13T20:07:35.297Z,48.40
2023-02-13T20:10:03.659Z,58.33
2023-02-13T20:12:31.962Z,49.28
2023-02-13T20:15:00.375Z,46.67
2023-02-13T20:17:30.121Z,47.92
2023-02-13T20:19:58.963Z,56.40
2023-02-13T20:22:27.310Z,52.85
2023-02-13T20:24:55.634Z,58.05
2023-02-13T20:27:23.935Z,59.35
2023-02-13T20:29:58.879Z,67.50
2023-02-13T20:32:36.239Z,57.92
2023-02-13T20:35:04.800Z,57.60
2023-02-13T20:37:33.170Z,54.75
2023-02-13T20:40:01.473Z,42.38
2023-02-13T20:42:29.698Z,47.50
2023-02-13T20:44:57.963Z,74.70
2023-02-13T20:47:26.237Z,55.20
2023-02-13T20:49:55.834Z,58.42
2023-02-13T20:52:24.095Z,67.68
2023-02-13T20:54:52.341Z,75.97
2023-02-13T20:57:20.651Z,75.32
2023-02-13T20:59:48.871Z,66.88
2023-02-13T21:02:19.521Z,52.42
2023-02-13T21:07:17.172Z,44.17
2023-02-13T21:09:45.532Z,41.90
2023-02-13T21:12:14.474Z,48.05
2023-02-13T21:14:42.983Z,50.83
2023-02-13T21:17:11.214Z,49.90
2023-02-13T21:19:39.747Z,50.15
2023-02-13T21:22:14.244Z,49.40
2023-02-13T21:24:44.294Z,44.03
2023-02-13T21:27:12.490Z,37.50
2023-02-13T21:29:40.732Z,45.85
2023-02-13T21:32:09.084Z,43.47
2023-02-13T21:34:37.376Z,42.67
2023-02-13T21:37:05.610Z,49.42
2023-02-13T21:39:34.368Z,47.05
2023-02-13T21:42:05.871Z,48.28
2023-02-13T21:44:34.091Z,40.08
2023-02-13T21:47:02.423Z,54.33
2023-02-13T21:49:30.674Z,44.85
2023-02-13T21:51:58.922Z,44.35
2023-02-13T21:54:27.304Z,51.92
2023-02-13T21:56:55.511Z,74.80
2023-02-13T21:59:25.106Z,42.47
2023-02-13T22:01:54.177Z,52.10
2023-02-13T22:04:22.657Z,58.30
2023-02-13T22:06:52.072Z,35.30
2023-02-13T22:09:21.486Z,58.05
2023-02-13T22:11:51.777Z,62.90
2023-02-13T22:16:51.308Z,89.85
2023-02-13T22:19:20.278Z,53.28
2023-02-13T22:21:48.589Z,62.78
2023-02-13T22:24:16.833Z,61.28
2023-02-13T22:26:46.226Z,51.60
2023-02-13T22:29:17.711Z,64.90
2023-02-13T22:31:46.100Z,67.75
2023-02-13T22:34:15.999Z,55.97
2023-02-13T22:36:44.337Z,59.92
2023-02-13T22:39:13.287Z,47.15
2023-02-13T22:41:44.433Z,53.97
2023-02-13T22:44:12.688Z,55.17
2023-02-13T22:46:40.963Z,49.05
2023-02-13T22:49:09.229Z,51.72
2023-02-13T22:51:38.824Z,54.60
2023-02-13T22:54:07.583Z,57.28
2023-02-13T22:56:36.181Z,54.17
2023-02-13T22:59:05.063Z,52.40
2023-02-13T23:01:33.332Z,56.28
2023-02-13T23:04:01.602Z,52.72
2023-02-13T23:06:29.933Z,45.78
2023-02-13T23:08:59.502Z,54.25
2023-02-13T23:11:46.251Z,43.42
2023-02-13T23:14:14.664Z,52.88
2023-02-13T23:17:01.639Z,57.53
2023-02-13T23:19:30.455Z,56.70
2023-02-13T23:21:58.785Z,71.55
2023-02-13T23:24:28.870Z,50.50
2023-02-13T23:26:57.126Z,42.10
2023-02-13T23:29:25.481Z,49.92
2023-02-13T23:31:53.988Z,42.08
2023-02-13T23:34:22.322Z,48.50
2023-02-13T23:36:50.570Z,58.80
2023-02-13T23:39:19.821Z,37.45
2023-02-13T23:41:49.397Z,50.63
2023-02-13T23:44:17.688Z,38.67
2023-02-13T23:46:45.994Z,52.20
2023-02-13T23:49:14.390Z,42.40
2023-02-13T23:51:42.579Z,77.00
2023-02-13T23:54:15.380Z,49.60
2023-02-13T23:56:43.744Z,46.67
2023-02-13T23:59:13.637Z,43.58
